sensor_id;sensor_type;location;lat;lon;timestamp;pressure;altitude;pressure_sealevel;temperature;humidity
9189;BME280;34313;50.780;6.084;2023-04-25T00:00:17;98972.38;;;6.46;94.91
9189;BME280;34313;50.780;6.084;2023-04-25T00:02:42;98973.06;;;6.49;95.31
9189;BME280;34313;50.780;6.084;2023-04-25T00:05:08;98970.44;;;6.49;95.55
9189;BME280;34313;50.780;6.084;2023-04-25T00:07:34;98968.44;;;6.54;95.77
9189;BME280;34313;50.780;6.084;2023-04-25T00:09:59;98971.75;;;6.58;95.47
9189;BME280;34313;50.780;6.084;2023-04-25T00:12:25;98976.66;;;6.64;95.27
9189;BME280;34313;50.780;6.084;2023-04-25T00:14:53;98969.44;;;6.69;95.11
9189;BME280;34313;50.780;6.084;2023-04-25T00:17:18;98976.75;;;6.62;95.56
9189;BME280;34313;50.780;6.084;2023-04-25T00:19:44;98974.31;;;6.59;95.88
9189;BME280;34313;50.780;6.084;2023-04-25T00:22:11;98977.91;;;6.57;95.98
9189;BME280;34313;50.780;6.084;2023-04-25T00:24:37;98971.75;;;6.58;96.02
9189;BME280;34313;50.780;6.084;2023-04-25T00:27:02;98971.28;;;6.50;96.61
9189;BME280;34313;50.780;6.084;2023-04-25T00:29:28;98967.28;;;6.42;96.96
9189;BME280;34313;50.780;6.084;2023-04-25T00:31:53;98961.56;;;6.34;97.37
9189;BME280;34313;50.780;6.084;2023-04-25T00:34:19;98972.03;;;6.34;97.65
9189;BME280;34313;50.780;6.084;2023-04-25T00:36:45;98972.38;;;6.28;98.50
9189;BME280;34313;50.780;6.084;2023-04-25T00:39:11;98976.91;;;6.24;98.63
9189;BME280;34313;50.780;6.084;2023-04-25T00:41:36;98980.97;;;6.30;98.72
9189;BME280;34313;50.780;6.084;2023-04-25T00:44:03;98981.13;;;6.27;98.75
9189;BME280;34313;50.780;6.084;2023-04-25T00:46:31;98979.28;;;6.29;98.80
9189;BME280;34313;50.780;6.084;2023-04-25T00:48:56;98975.81;;;6.29;98.74
9189;BME280;34313;50.780;6.084;2023-04-25T00:51:21;98980.97;;;6.30;98.78
9189;BME280;34313;50.780;6.084;2023-04-25T00:53:50;98977.59;;;6.28;98.78
9189;BME280;34313;50.780;6.084;2023-04-25T00:56:16;98969.50;;;6.33;98.96
9189;BME280;34313;50.780;6.084;2023-04-25T00:58:41;98983.38;;;6.35;98.87
9189;BME280;34313;50.780;6.084;2023-04-25T01:01:07;98981.53;;;6.37;98.74
9189;BME280;34313;50.780;6.084;2023-04-25T01:03:34;98974.84;;;6.31;98.59
9189;BME280;34313;50.780;6.084;2023-04-25T01:06:07;98982.50;;;6.34;98.62
9189;BME280;34313;50.780;6.084;2023-04-25T01:08:33;98980.22;;;6.46;98.31
9189;BME280;34313;50.780;6.084;2023-04-25T01:10:59;98984.78;;;6.59;97.15
9189;BME280;34313;50.780;6.084;2023-04-25T01:13:24;98981.91;;;6.64;96.07
9189;BME280;34313;50.780;6.084;2023-04-25T01:15:50;98979.91;;;6.69;95.62
9189;BME280;34313;50.780;6.084;2023-04-25T01:18:15;98973.75;;;6.70;94.78
9189;BME280;34313;50.780;6.084;2023-04-25T01:20:41;98982.09;;;6.78;94.58
9189;BME280;34313;50.780;6.084;2023-04-25T01:23:07;98987.31;;;6.78;94.42
9189;BME280;34313;50.780;6.084;2023-04-25T01:25:33;98988.22;;;6.77;94.70
9189;BME280;34313;50.780;6.084;2023-04-25T01:27:59;98982.38;;;6.72;94.65
9189;BME280;34313;50.780;6.084;2023-04-25T01:30:28;98979.91;;;6.69;94.99
9189;BME280;34313;50.780;6.084;2023-04-25T01:32:55;98985.22;;;6.68;94.69
9189;BME280;34313;50.780;6.084;2023-04-25T01:35:21;98989.06;;;6.60;95.06
9189;BME280;34313;50.780;6.084;2023-04-25T01:37:49;98985.91;;;6.54;95.68
9189;BME280;34313;50.780;6.084;2023-04-25T01:40:15;98984.22;;;6.53;96.02
9189;BME280;34313;50.780;6.084;2023-04-25T01:42:43;98979.91;;;6.52;95.55
9189;BME280;34313;50.780;6.084;2023-04-25T01:45:10;98995.00;;;6.47;95.78
9189;BME280;34313;50.780;6.084;2023-04-25T01:47:36;98998.78;;;6.41;96.11
9189;BME280;34313;50.780;6.084;2023-04-25T01:50:03;99002.50;;;6.54;96.33
9189;BME280;34313;50.780;6.084;2023-04-25T01:52:28;99003.88;;;6.44;96.59
9189;BME280;34313;50.780;6.084;2023-04-25T01:54:54;98997.94;;;6.40;96.92
9189;BME280;34313;50.780;6.084;2023-04-25T01:57:20;99004.94;;;6.40;97.36
9189;BME280;34313;50.780;6.084;2023-04-25T01:59:45;99005.00;;;6.38;97.29
9189;BME280;34313;50.780;6.084;2023-04-25T02:02:11;99006.75;;;6.38;97.07
9189;BME280;34313;50.780;6.084;2023-04-25T02:04:36;99003.16;;;6.40;97.72
9189;BME280;34313;50.780;6.084;2023-04-25T02:07:03;99001.59;;;6.36;97.84
9189;BME280;34313;50.780;6.084;2023-04-25T02:09:28;98995.16;;;6.43;97.77
9189;BME280;34313;50.780;6.084;2023-04-25T02:11:54;98995.16;;;6.43;97.83
9189;BME280;34313;50.780;6.084;2023-04-25T02:14:19;99005.72;;;6.42;98.62
9189;BME280;34313;50.780;6.084;2023-04-25T02:16:45;99000.69;;;6.37;98.47
9189;BME280;34313;50.780;6.084;2023-04-25T02:19:11;99000.84;;;6.34;98.28
9189;BME280;34313;50.780;6.084;2023-04-25T02:21:37;99003.31;;;6.37;98.25
9189;BME280;34313;50.780;6.084;2023-04-25T02:24:03;99007.00;;;6.33;98.64
9189;BME280;34313;50.780;6.084;2023-04-25T02:26:29;99008.75;;;6.33;98.87
9189;BME280;34313;50.780;6.084;2023-04-25T02:28:56;99004.22;;;6.36;98.64
9189;BME280;34313;50.780;6.084;2023-04-25T02:31:21;99010.06;;;6.41;99.13
9189;BME280;34313;50.780;6.084;2023-04-25T02:33:47;99002.16;;;6.43;99.28
9189;BME280;34313;50.780;6.084;2023-04-25T02:36:12;99005.72;;;6.42;99.34
9189;BME280;34313;50.780;6.084;2023-04-25T02:38:38;99002.31;;;6.40;99.42
9189;BME280;34313;50.780;6.084;2023-04-25T02:41:04;99005.78;;;6.40;99.52
9189;BME280;34313;50.780;6.084;2023-04-25T02:43:29;99004.31;;;6.35;99.58
9189;BME280;34313;50.780;6.084;2023-04-25T02:45:54;99001.91;;;6.30;99.55
9189;BME280;34313;50.780;6.084;2023-04-25T02:48:20;99006.06;;;6.34;100.00
9189;BME280;34313;50.780;6.084;2023-04-25T02:50:45;99013.63;;;6.40;100.00
9189;BME280;34313;50.780;6.084;2023-04-25T02:53:10;99018.81;;;6.42;100.00
9189;BME280;34313;50.780;6.084;2023-04-25T02:55:36;99015.50;;;6.38;100.00
9189;BME280;34313;50.780;6.084;2023-04-25T02:58:01;99015.00;;;6.30;100.00
9189;BME280;34313;50.780;6.084;2023-04-25T03:00:26;99002.19;;;6.24;100.00
9189;BME280;34313;50.780;6.084;2023-04-25T03:02:52;99003.28;;;6.20;100.00
9189;BME280;34313;50.780;6.084;2023-04-25T03:05:17;99006.53;;;6.25;100.00
9189;BME280;34313;50.780;6.084;2023-04-25T03:07:43;99005.00;;;6.21;100.00
9189;BME280;34313;50.780;6.084;2023-04-25T03:10:10;99015.75;;;6.15;100.00
9189;BME280;34313;50.780;6.084;2023-04-25T03:12:35;99012.34;;;6.13;100.00
9189;BME280;34313;50.780;6.084;2023-04-25T03:15:00;99015.97;;;6.10;100.00
9189;BME280;34313;50.780;6.084;2023-04-25T03:17:26;99012.78;;;6.03;100.00
9189;BME280;34313;50.780;6.084;2023-04-25T03:19:51;99013.84;;;5.99;100.00
9189;BME280;34313;50.780;6.084;2023-04-25T03:22:17;99011.50;;;5.93;100.00
9189;BME280;34313;50.780;6.084;2023-04-25T03:24:42;99016.88;;;5.90;100.00
9189;BME280;34313;50.780;6.084;2023-04-25T03:27:08;99007.63;;;5.83;100.00
9189;BME280;34313;50.780;6.084;2023-04-25T03:29:33;99019.09;;;5.80;100.00
9189;BME280;34313;50.780;6.084;2023-04-25T03:31:58;99017.38;;;5.79;100.00
9189;BME280;34313;50.780;6.084;2023-04-25T03:34:24;99010.75;;;5.72;100.00
9189;BME280;34313;50.780;6.084;2023-04-25T03:36:49;99016.94;;;5.69;100.00
9189;BME280;34313;50.780;6.084;2023-04-25T03:39:14;99013.69;;;5.64;100.00
9189;BME280;34313;50.780;6.084;2023-04-25T03:41:40;99021.41;;;5.67;100.00
9189;BME280;34313;50.780;6.084;2023-04-25T03:44:05;99018.91;;;5.64;100.00
9189;BME280;34313;50.780;6.084;2023-04-25T03:46:31;99019.84;;;5.63;100.00
9189;BME280;34313;50.780;6.084;2023-04-25T03:48:56;99034.06;;;5.77;100.00
9189;BME280;34313;50.780;6.084;2023-04-25T03:51:21;99027.00;;;5.79;100.00
9189;BME280;34313;50.780;6.084;2023-04-25T03:53:47;99030.66;;;5.75;100.00
9189;BME280;34313;50.780;6.084;2023-04-25T03:56:12;99029.81;;;5.74;100.00
9189;BME280;34313;50.780;6.084;2023-04-25T03:58:38;99027.13;;;5.76;100.00
9189;BME280;34313;50.780;6.084;2023-04-25T04:01:03;99026.13;;;5.78;100.00
9189;BME280;34313;50.780;6.084;2023-04-25T04:03:33;99028.97;;;5.74;100.00
9189;BME280;34313;50.780;6.084;2023-04-25T04:05:58;99025.78;;;5.67;100.00
9189;BME280;34313;50.780;6.084;2023-04-25T04:08:24;99019.09;;;5.80;100.00
9189;BME280;34313;50.780;6.084;2023-04-25T04:10:49;99032.44;;;5.74;100.00
9189;BME280;34313;50.780;6.084;2023-04-25T04:13:15;99033.19;;;5.76;100.00
9189;BME280;34313;50.780;6.084;2023-04-25T04:15:40;99033.56;;;5.68;100.00
9189;BME280;34313;50.780;6.084;2023-04-25T04:18:05;99040.84;;;5.81;100.00
9189;BME280;34313;50.780;6.084;2023-04-25T04:20:31;99038.44;;;5.76;100.00
9189;BME280;34313;50.780;6.084;2023-04-25T04:22:56;99040.19;;;5.76;100.00
9189;BME280;34313;50.780;6.084;2023-04-25T04:25:21;99043.47;;;5.81;100.00
9189;BME280;34313;50.780;6.084;2023-04-25T04:27:47;99042.81;;;5.76;100.00
9189;BME280;34313;50.780;6.084;2023-04-25T04:30:12;99046.13;;;5.79;100.00
9189;BME280;34313;50.780;6.084;2023-04-25T04:32:37;99051.44;;;5.78;100.00
9189;BME280;34313;50.780;6.084;2023-04-25T04:35:03;99051.38;;;5.79;100.00
9189;BME280;34313;50.780;6.084;2023-04-25T04:37:29;99052.28;;;5.78;100.00
9189;BME280;34313;50.780;6.084;2023-04-25T04:39:55;99060.28;;;5.75;100.00
9189;BME280;34313;50.780;6.084;2023-04-25T04:42:20;99062.47;;;5.84;100.00
9189;BME280;34313;50.780;6.084;2023-04-25T04:44:46;99059.66;;;5.89;100.00
9189;BME280;34313;50.780;6.084;2023-04-25T04:47:11;99063.72;;;5.96;100.00
9189;BME280;34313;50.780;6.084;2023-04-25T04:49:37;99066.16;;;5.99;100.00
9189;BME280;34313;50.780;6.084;2023-04-25T04:52:03;99064.41;;;6.00;100.00
9189;BME280;34313;50.780;6.084;2023-04-25T04:54:28;99065.75;;;6.09;99.55
9189;BME280;34313;50.780;6.084;2023-04-25T04:56:53;99069.63;;;6.19;99.36
9189;BME280;34313;50.780;6.084;2023-04-25T04:59:19;99068.13;;;6.32;98.10
9189;BME280;34313;50.780;6.084;2023-04-25T05:01:44;99088.97;;;6.53;97.63
9189;BME280;34313;50.780;6.084;2023-04-25T05:04:11;99092.19;;;6.58;96.30
9189;BME280;34313;50.780;6.084;2023-04-25T05:06:36;99083.19;;;6.63;95.91
9189;BME280;34313;50.780;6.084;2023-04-25T05:09:01;99093.28;;;6.71;96.12
9189;BME280;34313;50.780;6.084;2023-04-25T05:11:27;99095.00;;;6.72;95.47
9189;BME280;34313;50.780;6.084;2023-04-25T05:13:52;99106.25;;;6.74;95.20
9189;BME280;34313;50.780;6.084;2023-04-25T05:16:18;99101.69;;;6.78;94.81
9189;BME280;34313;50.780;6.084;2023-04-25T05:18:43;99107.81;;;6.78;94.75
9189;BME280;34313;50.780;6.084;2023-04-25T05:21:09;99114.78;;;6.78;94.79
9189;BME280;34313;50.780;6.084;2023-04-25T05:23:34;99114.16;;;6.73;94.66
9189;BME280;34313;50.780;6.084;2023-04-25T05:25:59;99106.25;;;6.74;94.75
9189;BME280;34313;50.780;6.084;2023-04-25T05:28:25;99112.72;;;6.85;94.52
9189;BME280;34313;50.780;6.084;2023-04-25T05:30:50;99111.56;;;7.08;93.42
9189;BME280;34313;50.780;6.084;2023-04-25T05:33:16;99114.28;;;7.24;92.75
9189;BME280;34313;50.780;6.084;2023-04-25T05:35:42;99110.56;;;7.45;91.85
9189;BME280;34313;50.780;6.084;2023-04-25T05:38:07;99118.56;;;7.60;90.74
9189;BME280;34313;50.780;6.084;2023-04-25T05:40:32;99114.69;;;7.67;89.56
9189;BME280;34313;50.780;6.084;2023-04-25T05:42:57;99120.03;;;7.81;88.48
9189;BME280;34313;50.780;6.084;2023-04-25T05:45:23;99126.94;;;8.00;87.00
9189;BME280;34313;50.780;6.084;2023-04-25T05:47:48;99131.09;;;8.20;86.18
9189;BME280;34313;50.780;6.084;2023-04-25T05:50:13;99129.63;;;8.47;84.92
9189;BME280;34313;50.780;6.084;2023-04-25T05:52:38;99132.06;;;8.82;82.57
9189;BME280;34313;50.780;6.084;2023-04-25T05:55:04;99132.59;;;9.34;80.86
9189;BME280;34313;50.780;6.084;2023-04-25T05:57:30;99131.41;;;10.11;75.10
9189;BME280;34313;50.780;6.084;2023-04-25T05:59:56;99124.06;;;10.72;73.07
9189;BME280;34313;50.780;6.084;2023-04-25T06:02:21;99132.78;;;11.27;67.39
9189;BME280;34313;50.780;6.084;2023-04-25T06:04:49;99135.88;;;11.85;67.50
9189;BME280;34313;50.780;6.084;2023-04-25T06:07:14;99131.00;;;12.18;64.89
9189;BME280;34313;50.780;6.084;2023-04-25T06:09:40;99138.50;;;12.11;63.93
9189;BME280;34313;50.780;6.084;2023-04-25T06:12:06;99136.28;;;11.92;63.70
9189;BME280;34313;50.780;6.084;2023-04-25T06:14:32;99141.03;;;11.87;62.83
9189;BME280;34313;50.780;6.084;2023-04-25T06:16:57;99142.28;;;11.43;63.08
9189;BME280;34313;50.780;6.084;2023-04-25T06:19:23;99144.34;;;11.12;63.90
9189;BME280;34313;50.780;6.084;2023-04-25T06:21:48;99152.06;;;11.15;64.11
9189;BME280;34313;50.780;6.084;2023-04-25T06:24:13;99160.44;;;11.34;63.62
9189;BME280;34313;50.780;6.084;2023-04-25T06:26:38;99163.56;;;11.27;63.54
9189;BME280;34313;50.780;6.084;2023-04-25T06:29:04;99162.41;;;10.91;63.31
9189;BME280;34313;50.780;6.084;2023-04-25T06:31:29;99160.44;;;10.53;64.57
9189;BME280;34313;50.780;6.084;2023-04-25T06:33:57;99164.25;;;10.34;65.60
9189;BME280;34313;50.780;6.084;2023-04-25T06:36:22;99162.56;;;10.33;66.41
9189;BME280;34313;50.780;6.084;2023-04-25T06:38:53;99161.66;;;10.62;64.42
9189;BME280;34313;50.780;6.084;2023-04-25T06:41:19;99161.00;;;10.58;61.55
9189;BME280;34313;50.780;6.084;2023-04-25T06:43:45;99161.88;;;10.44;61.25
9189;BME280;34313;50.780;6.084;2023-04-25T06:46:10;99169.88;;;10.43;60.79
9189;BME280;34313;50.780;6.084;2023-04-25T06:48:36;99169.66;;;10.60;59.73
9189;BME280;34313;50.780;6.084;2023-04-25T06:51:01;99171.81;;;10.68;59.25
9189;BME280;34313;50.780;6.084;2023-04-25T06:53:27;99169.81;;;10.71;58.83
9189;BME280;34313;50.780;6.084;2023-04-25T06:55:52;99176.13;;;10.69;58.87
9189;BME280;34313;50.780;6.084;2023-04-25T06:58:18;99183.28;;;10.67;58.46
9189;BME280;34313;50.780;6.084;2023-04-25T07:00:43;99182.22;;;10.42;58.78
9189;BME280;34313;50.780;6.084;2023-04-25T07:03:08;99181.63;;;10.22;59.48
9189;BME280;34313;50.780;6.084;2023-04-25T07:05:34;99182.94;;;10.01;59.99
9189;BME280;34313;50.780;6.084;2023-04-25T07:08:00;99174.69;;;9.93;60.15
9189;BME280;34313;50.780;6.084;2023-04-25T07:10:25;99185.03;;;9.96;60.44
9189;BME280;34313;50.780;6.084;2023-04-25T07:12:50;99173.00;;;10.20;59.61
9189;BME280;34313;50.780;6.084;2023-04-25T07:15:16;99183.41;;;10.51;59.05
9189;BME280;34313;50.780;6.084;2023-04-25T07:17:41;99183.75;;;11.01;57.66
9189;BME280;34313;50.780;6.084;2023-04-25T07:20:07;99191.47;;;11.44;55.66
9189;BME280;34313;50.780;6.084;2023-04-25T07:22:34;99197.19;;;11.10;56.36
9189;BME280;34313;50.780;6.084;2023-04-25T07:24:59;99200.06;;;11.20;56.58
9189;BME280;34313;50.780;6.084;2023-04-25T07:27:25;99202.88;;;11.44;57.13
9189;BME280;34313;50.780;6.084;2023-04-25T07:29:50;99202.69;;;11.60;57.47
9189;BME280;34313;50.780;6.084;2023-04-25T07:32:15;99208.31;;;11.68;57.15
9189;BME280;34313;50.780;6.084;2023-04-25T07:34:41;99212.19;;;11.63;56.96
9189;BME280;34313;50.780;6.084;2023-04-25T07:37:06;99207.50;;;11.41;57.18
9189;BME280;34313;50.780;6.084;2023-04-25T07:39:32;99205.59;;;11.43;56.95
9189;BME280;34313;50.780;6.084;2023-04-25T07:41:57;99210.34;;;11.38;56.93
9189;BME280;34313;50.780;6.084;2023-04-25T07:44:24;99214.50;;;10.87;58.28
9189;BME280;34313;50.780;6.084;2023-04-25T07:46:50;99218.59;;;10.50;59.13
9189;BME280;34313;50.780;6.084;2023-04-25T07:49:16;99220.97;;;10.54;59.75
9189;BME280;34313;50.780;6.084;2023-04-25T07:51:41;99223.31;;;10.59;59.32
9189;BME280;34313;50.780;6.084;2023-04-25T07:54:09;99236.28;;;10.62;59.71
9189;BME280;34313;50.780;6.084;2023-04-25T07:56:34;99237.50;;;10.28;60.15
9189;BME280;34313;50.780;6.084;2023-04-25T07:59:00;99245.03;;;10.05;60.64
9189;BME280;34313;50.780;6.084;2023-04-25T08:01:25;99248.22;;;9.96;61.03
9189;BME280;34313;50.780;6.084;2023-04-25T08:03:52;99251.91;;;9.63;62.24
9189;BME280;34313;50.780;6.084;2023-04-25T08:06:17;99253.19;;;9.56;63.09
9189;BME280;34313;50.780;6.084;2023-04-25T08:08:43;99260.19;;;9.71;63.41
9189;BME280;34313;50.780;6.084;2023-04-25T08:11:08;99267.84;;;9.90;63.18
9189;BME280;34313;50.780;6.084;2023-04-25T08:13:33;99271.34;;;9.91;62.85
9189;BME280;34313;50.780;6.084;2023-04-25T08:15:59;99273.50;;;10.13;61.73
9189;BME280;34313;50.780;6.084;2023-04-25T08:18:24;99268.00;;;10.60;58.45
9189;BME280;34313;50.780;6.084;2023-04-25T08:20:49;99263.44;;;10.91;57.60
9189;BME280;34313;50.780;6.084;2023-04-25T08:23:15;99264.69;;;11.27;56.44
9189;BME280;34313;50.780;6.084;2023-04-25T08:25:40;99268.84;;;11.44;55.57
9189;BME280;34313;50.780;6.084;2023-04-25T08:28:06;99275.94;;;11.57;53.79
9189;BME280;34313;50.780;6.084;2023-04-25T08:30:31;99273.28;;;11.84;51.95
9189;BME280;34313;50.780;6.084;2023-04-25T08:32:56;99276.09;;;12.46;50.87
9189;BME280;34313;50.780;6.084;2023-04-25T08:35:22;99279.88;;;13.42;49.17
9189;BME280;34313;50.780;6.084;2023-04-25T08:37:48;99276.19;;;14.38;46.09
9189;BME280;34313;50.780;6.084;2023-04-25T08:40:15;99275.16;;;14.74;45.23
9189;BME280;34313;50.780;6.084;2023-04-25T08:42:44;99278.94;;;15.59;44.01
9189;BME280;34313;50.780;6.084;2023-04-25T08:45:10;99279.84;;;15.69;41.73
9189;BME280;34313;50.780;6.084;2023-04-25T08:47:37;99289.97;;;15.32;41.99
9189;BME280;34313;50.780;6.084;2023-04-25T08:50:04;99285.47;;;15.00;41.92
9189;BME280;34313;50.780;6.084;2023-04-25T08:52:35;99297.94;;;15.32;41.91
9189;BME280;34313;50.780;6.084;2023-04-25T08:55:01;99285.19;;;15.58;41.16
9189;BME280;34313;50.780;6.084;2023-04-25T08:57:29;99295.91;;;16.21;40.17
9189;BME280;34313;50.780;6.084;2023-04-25T08:59:57;99287.72;;;16.55;39.23
9189;BME280;34313;50.780;6.084;2023-04-25T09:02:24;99289.25;;;16.58;38.04
9189;BME280;34313;50.780;6.084;2023-04-25T09:04:50;99294.66;;;16.47;38.03
9189;BME280;34313;50.780;6.084;2023-04-25T09:07:15;99307.41;;;16.01;38.88
9189;BME280;34313;50.780;6.084;2023-04-25T09:09:43;99308.31;;;15.90;39.25
9189;BME280;34313;50.780;6.084;2023-04-25T09:12:09;99311.22;;;16.08;39.10
9189;BME280;34313;50.780;6.084;2023-04-25T09:14:35;99320.09;;;15.76;39.53
9189;BME280;34313;50.780;6.084;2023-04-25T09:17:03;99319.88;;;14.79;39.98
9189;BME280;34313;50.780;6.084;2023-04-25T09:19:34;99324.81;;;14.14;39.91
9189;BME280;34313;50.780;6.084;2023-04-25T09:22:02;99333.22;;;13.73;40.77
9189;BME280;34313;50.780;6.084;2023-04-25T09:27:03;99337.72;;;12.60;42.98
9189;BME280;34313;50.780;6.084;2023-04-25T09:29:29;99343.22;;;12.82;43.35
9189;BME280;34313;50.780;6.084;2023-04-25T09:32:11;99343.28;;;13.07;43.22
9189;BME280;34313;50.780;6.084;2023-04-25T09:34:42;99354.53;;;12.97;43.04
9189;BME280;34313;50.780;6.084;2023-04-25T09:37:09;99351.78;;;12.73;43.75
9189;BME280;34313;50.780;6.084;2023-04-25T09:39:36;99352.09;;;12.56;44.37
9189;BME280;34313;50.780;6.084;2023-04-25T09:42:03;99366.66;;;12.10;44.81
9189;BME280;34313;50.780;6.084;2023-04-25T09:44:28;99369.28;;;11.83;45.90
9189;BME280;34313;50.780;6.084;2023-04-25T09:46:53;99370.81;;;11.45;46.85
9189;BME280;34313;50.780;6.084;2023-04-25T09:49:20;99374.94;;;11.22;47.27
9189;BME280;34313;50.780;6.084;2023-04-25T09:51:58;99383.34;;;10.86;48.46
9189;BME280;34313;50.780;6.084;2023-04-25T09:54:25;99391.63;;;10.94;48.16
9189;BME280;34313;50.780;6.084;2023-04-25T09:56:52;99396.03;;;10.93;47.83
9189;BME280;34313;50.780;6.084;2023-04-25T09:59:21;99396.91;;;11.08;48.54
9189;BME280;34313;50.780;6.084;2023-04-25T10:01:48;99397.81;;;11.07;48.47
9189;BME280;34313;50.780;6.084;2023-04-25T10:04:18;99405.47;;;11.12;48.55
9189;BME280;34313;50.780;6.084;2023-04-25T10:06:45;99405.34;;;10.99;48.83
9189;BME280;34313;50.780;6.084;2023-04-25T10:09:11;99413.66;;;11.07;49.32
9189;BME280;34313;50.780;6.084;2023-04-25T10:11:38;99410.53;;;11.01;49.60
9189;BME280;34313;50.780;6.084;2023-04-25T10:14:04;99412.63;;;11.10;49.56
9189;BME280;34313;50.780;6.084;2023-04-25T10:16:30;99401.34;;;11.49;48.95
9189;BME280;34313;50.780;6.084;2023-04-25T10:18:56;99407.50;;;11.77;48.26
9189;BME280;34313;50.780;6.084;2023-04-25T10:21:21;99396.97;;;12.04;48.14
9189;BME280;34313;50.780;6.084;2023-04-25T10:23:48;99397.03;;;12.81;46.49
9189;BME280;34313;50.780;6.084;2023-04-25T10:26:14;99386.44;;;13.33;45.60
9189;BME280;34313;50.780;6.084;2023-04-25T10:29:00;99387.38;;;13.69;44.84
9189;BME280;34313;50.780;6.084;2023-04-25T10:31:27;99391.69;;;14.18;44.13
9189;BME280;34313;50.780;6.084;2023-04-25T10:33:54;99386.78;;;14.83;42.99
9189;BME280;34313;50.780;6.084;2023-04-25T10:36:21;99380.78;;;15.81;40.83
9189;BME280;34313;50.780;6.084;2023-04-25T10:38:48;99378.72;;;16.80;38.36
9189;BME280;34313;50.780;6.084;2023-04-25T10:41:19;99369.97;;;17.30;36.73
9189;BME280;34313;50.780;6.084;2023-04-25T10:43:48;99366.84;;;17.75;35.67
9189;BME280;34313;50.780;6.084;2023-04-25T10:46:19;99362.31;;;17.06;36.35
9189;BME280;34313;50.780;6.084;2023-04-25T10:48:48;99363.72;;;16.79;36.56
9189;BME280;34313;50.780;6.084;2023-04-25T10:56:22;99393.31;;;15.12;39.58
9189;BME280;34313;50.780;6.084;2023-04-25T10:58:48;99390.06;;;14.86;40.27
9189;BME280;34313;50.780;6.084;2023-04-25T11:01:15;99396.38;;;14.14;41.74
9189;BME280;34313;50.780;6.084;2023-04-25T11:03:44;99381.84;;;14.20;42.39
9189;BME280;34313;50.780;6.084;2023-04-25T11:06:34;99394.19;;;14.44;43.09
9189;BME280;34313;50.780;6.084;2023-04-25T11:09:03;99385.13;;;14.93;41.80
9189;BME280;34313;50.780;6.084;2023-04-25T11:11:36;99377.03;;;14.94;41.50
9189;BME280;34313;50.780;6.084;2023-04-25T11:14:01;99392.25;;;14.46;41.90
9189;BME280;34313;50.780;6.084;2023-04-25T11:16:26;99386.53;;;13.68;42.72
9189;BME280;34313;50.780;6.084;2023-04-25T11:18:52;99396.44;;;12.91;43.34
9189;BME280;34313;50.780;6.084;2023-04-25T11:21:17;99395.53;;;12.26;45.12
9189;BME280;34313;50.780;6.084;2023-04-25T11:23:45;99394.75;;;11.84;46.83
9189;BME280;34313;50.780;6.084;2023-04-25T11:26:11;99402.25;;;11.07;48.61
9189;BME280;34313;50.780;6.084;2023-04-25T11:28:36;99410.53;;;10.72;49.51
9189;BME280;34313;50.780;6.084;2023-04-25T11:31:02;99408.91;;;10.25;50.55
9189;BME280;34313;50.780;6.084;2023-04-25T11:33:29;99408.44;;;10.02;51.43
9189;BME280;34313;50.780;6.084;2023-04-25T11:35:54;99410.25;;;10.01;51.78
9189;BME280;34313;50.780;6.084;2023-04-25T11:38:24;99417.22;;;9.71;52.38
9189;BME280;34313;50.780;6.084;2023-04-25T11:40:53;99425.72;;;9.60;52.61
9189;BME280;34313;50.780;6.084;2023-04-25T11:43:22;99421.97;;;9.64;53.26
9189;BME280;34313;50.780;6.084;2023-04-25T11:45:49;99420.31;;;9.63;53.57
9189;BME280;34313;50.780;6.084;2023-04-25T11:48:15;99430.91;;;9.61;53.91
9189;BME280;34313;50.780;6.084;2023-04-25T11:50:44;99433.19;;;9.83;53.48
9189;BME280;34313;50.780;6.084;2023-04-25T11:53:10;99430.44;;;10.01;53.68
9189;BME280;34313;50.780;6.084;2023-04-25T11:55:36;99430.69;;;10.12;52.47
9189;BME280;34313;50.780;6.084;2023-04-25T11:58:03;99435.47;;;10.52;50.77
9189;BME280;34313;50.780;6.084;2023-04-25T12:00:29;99435.50;;;10.81;49.67
9189;BME280;34313;50.780;6.084;2023-04-25T12:02:56;99437.38;;;11.22;48.80
9189;BME280;34313;50.780;6.084;2023-04-25T12:05:27;99438.00;;;11.54;48.51
9189;BME280;34313;50.780;6.084;2023-04-25T12:07:54;99434.66;;;11.79;48.33
9189;BME280;34313;50.780;6.084;2023-04-25T12:10:20;99441.66;;;12.07;46.23
9189;BME280;34313;50.780;6.084;2023-04-25T12:12:46;99438.91;;;12.49;45.37
9189;BME280;34313;50.780;6.084;2023-04-25T12:15:17;99445.81;;;12.77;43.46
9189;BME280;34313;50.780;6.084;2023-04-25T12:17:49;99446.66;;;13.16;42.86
9189;BME280;34313;50.780;6.084;2023-04-25T12:20:16;99444.22;;;13.52;41.95
9189;BME280;34313;50.780;6.084;2023-04-25T12:22:43;99441.50;;;14.26;41.08
9189;BME280;34313;50.780;6.084;2023-04-25T12:25:10;99443.53;;;14.57;39.69
9189;BME280;34313;50.780;6.084;2023-04-25T12:27:36;99438.03;;;14.36;38.01
9189;BME280;34313;50.780;6.084;2023-04-25T12:30:02;99440.50;;;14.27;38.91
9189;BME280;34313;50.780;6.084;2023-04-25T12:32:27;99444.38;;;14.23;38.98
9189;BME280;34313;50.780;6.084;2023-04-25T12:34:52;99438.84;;;14.26;38.10
9189;BME280;34313;50.780;6.084;2023-04-25T12:37:18;99439.09;;;14.34;37.65
9189;BME280;34313;50.780;6.084;2023-04-25T12:39:43;99436.63;;;14.55;37.64
9189;BME280;34313;50.780;6.084;2023-04-25T12:42:08;99441.81;;;14.92;37.08
9189;BME280;34313;50.780;6.084;2023-04-25T12:44:37;99447.00;;;15.16;36.93
9189;BME280;34313;50.780;6.084;2023-04-25T12:47:02;99438.56;;;15.45;36.12
9189;BME280;34313;50.780;6.084;2023-04-25T12:49:28;99442.78;;;15.59;35.72
9189;BME280;34313;50.780;6.084;2023-04-25T12:51:53;99442.53;;;15.73;35.40
9189;BME280;34313;50.780;6.084;2023-04-25T12:54:18;99442.44;;;16.07;34.93
9189;BME280;34313;50.780;6.084;2023-04-25T12:56:44;99444.84;;;15.78;35.21
9189;BME280;34313;50.780;6.084;2023-04-25T12:59:09;99437.97;;;15.64;35.98
9189;BME280;34313;50.780;6.084;2023-04-25T13:01:34;99431.50;;;15.89;36.10
9189;BME280;34313;50.780;6.084;2023-04-25T13:04:00;99439.84;;;15.96;35.64
9189;BME280;34313;50.780;6.084;2023-04-25T13:06:25;99434.59;;;15.28;36.48
9189;BME280;34313;50.780;6.084;2023-04-25T13:08:51;99435.19;;;15.31;36.53
9189;BME280;34313;50.780;6.084;2023-04-25T13:11:16;99432.41;;;15.33;37.09
9189;BME280;34313;50.780;6.084;2023-04-25T13:13:43;99440.34;;;14.77;37.90
9189;BME280;34313;50.780;6.084;2023-04-25T13:16:09;99436.22;;;14.72;37.65